sensor_id;sensor_type;location;lat;lon;timestamp;pressure;altitude;pressure_sealevel;temperature;humidity
21960;BME280;11144;43.030;25.108;2023-02-23T00:01:13;99123.03;;;4.80;100.00
21960;BME280;11144;43.030;25.108;2023-02-23T00:02:48;99118.78;;;4.73;100.00
21960;BME280;11144;43.030;25.108;2023-02-23T00:04:21;99121.50;;;4.69;100.00
21960;BME280;11144;43.030;25.108;2023-02-23T00:05:55;99118.03;;;4.65;100.00
21960;BME280;11144;43.030;25.108;2023-02-23T00:07:28;99121.59;;;4.61;100.00
21960;BME280;11144;43.030;25.108;2023-02-23T00:09:02;99121.53;;;4.66;100.00
21960;BME280;11144;43.030;25.108;2023-02-23T00:10:43;99121.50;;;4.67;100.00
21960;BME280;11144;43.030;25.108;2023-02-23T00:12:17;99122.34;;;4.69;100.00
21960;BME280;11144;43.030;25.108;2023-02-23T00:13:51;99116.19;;;4.70;100.00
21960;BME280;11144;43.030;25.108;2023-02-23T00:15:25;99118.81;;;4.70;100.00
21960;BME280;11144;43.030;25.108;2023-02-23T00:16:57;99129.16;;;4.79;100.00
21960;BME280;11144;43.030;25.108;2023-02-23T00:18:32;99125.66;;;4.79;100.00
21960;BME280;11144;43.030;25.108;2023-02-23T00:20:16;99124.88;;;4.75;100.00
21960;BME280;11144;43.030;25.108;2023-02-23T00:21:50;99130.09;;;4.75;100.00
21960;BME280;11144;43.030;25.108;2023-02-23T00:23:23;99127.44;;;4.78;100.00
21960;BME280;11144;43.030;25.108;2023-02-23T00:24:58;99130.03;;;4.80;100.00
21960;BME280;11144;43.030;25.108;2023-02-23T00:26:31;99140.44;;;4.83;100.00
21960;BME280;11144;43.030;25.108;2023-02-23T00:28:07;99134.44;;;4.76;100.00
21960;BME280;11144;43.030;25.108;2023-02-23T00:29:40;99127.56;;;4.69;100.00
21960;BME280;11144;43.030;25.108;2023-02-23T00:31:14;99129.41;;;4.64;100.00
21960;BME280;11144;43.030;25.108;2023-02-23T00:32:49;99125.13;;;4.59;100.00
21960;BME280;11144;43.030;25.108;2023-02-23T00:34:24;99121.78;;;4.51;100.00
21960;BME280;11144;43.030;25.108;2023-02-23T00:36:02;99130.56;;;4.45;100.00
21960;BME280;11144;43.030;25.108;2023-02-23T00:37:36;99134.94;;;4.43;100.00
21960;BME280;11144;43.030;25.108;2023-02-23T00:39:11;99126.34;;;4.35;100.00
21960;BME280;11144;43.030;25.108;2023-02-23T00:40:52;99128.19;;;4.30;100.00
21960;BME280;11144;43.030;25.108;2023-02-23T00:42:25;99128.19;;;4.30;100.00
21960;BME280;11144;43.030;25.108;2023-02-23T00:44:07;99131.63;;;4.32;100.00
21960;BME280;11144;43.030;25.108;2023-02-23T00:45:40;99131.63;;;4.32;100.00
21960;BME280;11144;43.030;25.108;2023-02-23T00:47:13;99125.59;;;4.27;100.00
21960;BME280;11144;43.030;25.108;2023-02-23T00:48:49;99133.53;;;4.21;100.00
21960;BME280;11144;43.030;25.108;2023-02-23T00:50:22;99125.78;;;4.15;100.00
21960;BME280;11144;43.030;25.108;2023-02-23T00:51:56;99127.50;;;4.18;100.00
21960;BME280;11144;43.030;25.108;2023-02-23T00:53:29;99123.22;;;4.12;100.00
21960;BME280;11144;43.030;25.108;2023-02-23T00:55:02;99126.75;;;4.08;100.00
21960;BME280;11144;43.030;25.108;2023-02-23T00:56:35;99121.53;;;4.08;100.00
21960;BME280;11144;43.030;25.108;2023-02-23T00:58:10;99116.34;;;4.02;100.00
21960;BME280;11144;43.030;25.108;2023-02-23T00:59:47;99119.94;;;3.95;100.00
21960;BME280;11144;43.030;25.108;2023-02-23T01:01:20;99107.75;;;3.94;100.00
21960;BME280;11144;43.030;25.108;2023-02-23T01:02:55;99111.28;;;3.90;100.00
21960;BME280;11144;43.030;25.108;2023-02-23T01:04:28;99114.84;;;3.86;100.00
21960;BME280;11144;43.030;25.108;2023-02-23T01:06:03;99120.06;;;3.86;100.00
21960;BME280;11144;43.030;25.108;2023-02-23T01:07:37;99114.88;;;3.83;100.00
21960;BME280;11144;43.030;25.108;2023-02-23T01:09:11;99120.09;;;3.83;100.00
21960;BME280;11144;43.030;25.108;2023-02-23T01:10:46;99119.25;;;3.81;100.00
21960;BME280;11144;43.030;25.108;2023-02-23T01:12:24;99113.22;;;3.76;100.00
21960;BME280;11144;43.030;25.108;2023-02-23T01:13:59;99118.53;;;3.67;100.00
21960;BME280;11144;43.030;25.108;2023-02-23T01:15:34;99119.47;;;3.63;100.00
21960;BME280;11144;43.030;25.108;2023-02-23T01:17:07;99113.41;;;3.61;100.00
21960;BME280;11144;43.030;25.108;2023-02-23T01:18:42;99117.75;;;3.60;100.00
21960;BME280;11144;43.030;25.108;2023-02-23T01:20:16;99123.84;;;3.61;100.00
21960;BME280;11144;43.030;25.108;2023-02-23T01:21:50;99111.63;;;3.63;100.00
21960;BME280;11144;43.030;25.108;2023-02-23T01:23:22;99112.50;;;3.63;100.00
21960;BME280;11144;43.030;25.108;2023-02-23T01:24:55;99113.28;;;3.70;100.00
21960;BME280;11144;43.030;25.108;2023-02-23T01:26:30;99118.50;;;3.70;100.00
21960;BME280;11144;43.030;25.108;2023-02-23T01:28:05;99119.34;;;3.75;100.00
21960;BME280;11144;43.030;25.108;2023-02-23T01:29:41;99115.84;;;3.73;100.00
21960;BME280;11144;43.030;25.108;2023-02-23T01:31:16;99120.19;;;3.74;100.00
21960;BME280;11144;43.030;25.108;2023-02-23T01:32:50;99112.34;;;3.76;100.00
21960;BME280;11144;43.030;25.108;2023-02-23T01:34:25;99111.50;;;3.75;100.00
21960;BME280;11144;43.030;25.108;2023-02-23T01:35:59;99115.09;;;3.65;100.00
21960;BME280;11144;43.030;25.108;2023-02-23T01:37:33;99114.34;;;3.54;100.00
21960;BME280;11144;43.030;25.108;2023-02-23T01:39:09;99108.19;;;3.58;100.00
21960;BME280;11144;43.030;25.108;2023-02-23T01:40:45;99117.00;;;3.51;100.00
21960;BME280;11144;43.030;25.108;2023-02-23T01:42:18;99115.31;;;3.47;100.00
21960;BME280;11144;43.030;25.108;2023-02-23T01:43:58;99117.88;;;3.51;100.00
21960;BME280;11144;43.030;25.108;2023-02-23T01:45:32;99115.22;;;3.56;100.00
21960;BME280;11144;43.030;25.108;2023-02-23T01:47:07;99119.50;;;3.62;100.00
21960;BME280;11144;43.030;25.108;2023-02-23T01:48:42;99118.59;;;3.64;100.00
21960;BME280;11144;43.030;25.108;2023-02-23T01:50:15;99111.59;;;3.66;100.00
21960;BME280;11144;43.030;25.108;2023-02-23T01:51:52;99119.41;;;3.69;100.00
21960;BME280;11144;43.030;25.108;2023-02-23T01:53:30;99111.53;;;3.72;100.00
21960;BME280;11144;43.030;25.108;2023-02-23T01:55:06;99118.50;;;3.70;100.00
21960;BME280;11144;43.030;25.108;2023-02-23T01:56:46;99116.75;;;3.72;100.00
21960;BME280;11144;43.030;25.108;2023-02-23T01:58:29;99124.56;;;3.75;100.00
21960;BME280;11144;43.030;25.108;2023-02-23T02:00:06;99118.44;;;3.76;100.00
21960;BME280;11144;43.030;25.108;2023-02-23T02:01:43;99125.41;;;3.74;100.00
21960;BME280;11144;43.030;25.108;2023-02-23T02:03:27;99122.81;;;3.72;100.00
21960;BME280;11144;43.030;25.108;2023-02-23T02:05:04;99117.66;;;3.70;100.00
21960;BME280;11144;43.030;25.108;2023-02-23T02:06:39;99111.69;;;3.60;100.00
21960;BME280;11144;43.030;25.108;2023-02-23T02:08:13;99112.66;;;3.51;100.00
21960;BME280;11144;43.030;25.108;2023-02-23T02:09:52;99119.59;;;3.51;100.00
21960;BME280;11144;43.030;25.108;2023-02-23T02:11:41;99117.03;;;3.48;100.00
21960;BME280;11144;43.030;25.108;2023-02-23T02:13:19;99121.41;;;3.47;100.00
21960;BME280;11144;43.030;25.108;2023-02-23T02:14:55;99122.22;;;3.51;100.00
21960;BME280;11144;43.030;25.108;2023-02-23T02:16:40;99124.03;;;3.46;100.00
21960;BME280;11144;43.030;25.108;2023-02-23T02:18:27;99127.53;;;3.45;100.00
21960;BME280;11144;43.030;25.108;2023-02-23T02:20:37;99130.19;;;3.39;100.00
21960;BME280;11144;43.030;25.108;2023-02-23T02:27:11;99127.72;;;3.27;100.00
21960;BME280;11144;43.030;25.108;2023-02-23T02:29:23;99119.06;;;3.19;100.00
21960;BME280;11144;43.030;25.108;2023-02-23T02:33:35;99126.22;;;3.02;100.00
21960;BME280;11144;43.030;25.108;2023-02-23T02:35:34;99126.25;;;2.99;100.00
21960;BME280;11144;43.030;25.108;2023-02-23T02:39:19;99123.66;;;2.94;100.00
21960;BME280;11144;43.030;25.108;2023-02-23T02:41:11;99117.66;;;2.88;100.00
21960;BME280;11144;43.030;25.108;2023-02-23T02:42:56;99116.84;;;2.78;100.00
21960;BME280;11144;43.030;25.108;2023-02-23T02:44:37;99129.91;;;2.77;100.00
21960;BME280;11144;43.030;25.108;2023-02-23T02:46:16;99131.69;;;2.75;100.00
21960;BME280;11144;43.030;25.108;2023-02-23T02:47:57;99124.69;;;2.77;100.00
21960;BME280;11144;43.030;25.108;2023-02-23T02:49:39;99125.56;;;2.80;100.00
21960;BME280;11144;43.030;25.108;2023-02-23T02:51:23;99128.09;;;2.85;100.00
21960;BME280;11144;43.030;25.108;2023-02-23T02:53:06;99129.91;;;2.80;100.00
21960;BME280;11144;43.030;25.108;2023-02-23T02:54:44;99128.19;;;2.76;100.00
21960;BME280;11144;43.030;25.108;2023-02-23T02:56:24;99129.97;;;2.71;100.00
21960;BME280;11144;43.030;25.108;2023-02-23T02:58:00;99137.84;;;2.66;100.00
21960;BME280;11144;43.030;25.108;2023-02-23T02:59:42;99124.81;;;2.65;100.00
21960;BME280;11144;43.030;25.108;2023-02-23T03:01:33;99130.03;;;2.65;100.00
21960;BME280;11144;43.030;25.108;2023-02-23T03:03:29;99133.47;;;2.67;100.00
21960;BME280;11144;43.030;25.108;2023-02-23T03:05:26;99129.09;;;2.72;100.00
21960;BME280;11144;43.030;25.108;2023-02-23T03:07:22;99130.78;;;2.79;100.00
21960;BME280;11144;43.030;25.108;2023-02-23T03:09:26;99145.53;;;2.86;100.00
21960;BME280;11144;43.030;25.108;2023-02-23T03:11:24;99133.31;;;2.85;100.00
21960;BME280;11144;43.030;25.108;2023-02-23T03:13:24;99138.56;;;2.82;100.00
21960;BME280;11144;43.030;25.108;2023-02-23T03:15:31;99142.09;;;2.78;100.00
21960;BME280;11144;43.030;25.108;2023-02-23T03:17:34;99137.75;;;2.74;100.00
21960;BME280;11144;43.030;25.108;2023-02-23T03:19:33;99145.59;;;2.74;100.00
21960;BME280;11144;43.030;25.108;2023-02-23T03:21:27;99154.31;;;2.70;100.00
21960;BME280;11144;43.030;25.108;2023-02-23T03:23:35;99143.88;;;2.70;100.00
21960;BME280;11144;43.030;25.108;2023-02-23T03:25:40;99144.81;;;2.63;100.00
21960;BME280;11144;43.030;25.108;2023-02-23T03:27:42;99150.03;;;2.64;100.00
21960;BME280;11144;43.030;25.108;2023-02-23T03:29:39;99144.88;;;2.55;100.00
21960;BME280;11144;43.030;25.108;2023-02-23T03:31:38;99147.53;;;2.51;100.00
21960;BME280;11144;43.030;25.108;2023-02-23T03:33:38;99151.91;;;2.47;100.00
21960;BME280;11144;43.030;25.108;2023-02-23T03:35:37;99141.47;;;2.46;100.00
21960;BME280;11144;43.030;25.108;2023-02-23T03:37:36;99155.44;;;2.39;100.00
21960;BME280;11144;43.030;25.108;2023-02-23T03:39:32;99149.41;;;2.28;100.00
21960;BME280;11144;43.030;25.108;2023-02-23T03:41:30;99156.34;;;2.29;100.00
21960;BME280;11144;43.030;25.108;2023-02-23T03:43:26;99155.47;;;2.30;100.00
21960;BME280;11144;43.030;25.108;2023-02-23T03:45:22;99152.00;;;2.31;100.00
21960;BME280;11144;43.030;25.108;2023-02-23T03:47:16;99147.66;;;2.27;100.00
21960;BME280;11144;43.030;25.108;2023-02-23T03:49:09;99154.63;;;2.26;100.00
21960;BME280;11144;43.030;25.108;2023-02-23T03:51:05;99149.41;;;2.28;100.00
21960;BME280;11144;43.030;25.108;2023-02-23T03:52:59;99148.53;;;2.30;100.00
21960;BME280;11144;43.030;25.108;2023-02-23T03:54:55;99157.19;;;2.32;100.00
21960;BME280;11144;43.030;25.108;2023-02-23T03:56:49;99154.63;;;2.28;100.00
21960;BME280;11144;43.030;25.108;2023-02-23T03:58:45;99158.09;;;2.27;100.00
21960;BME280;11144;43.030;25.108;2023-02-23T04:00:40;99156.34;;;2.29;100.00
21960;BME280;11144;43.030;25.108;2023-02-23T04:02:33;99156.38;;;2.23;100.00
21960;BME280;11144;43.030;25.108;2023-02-23T04:04:29;99159.88;;;2.22;100.00
21960;BME280;11144;43.030;25.108;2023-02-23T04:06:23;99152.03;;;2.23;100.00
21960;BME280;11144;43.030;25.108;2023-02-23T04:08:17;99165.91;;;2.31;100.00
21960;BME280;11144;43.030;25.108;2023-02-23T04:10:09;99154.63;;;2.28;100.00
21960;BME280;11144;43.030;25.108;2023-02-23T04:12:06;99168.47;;;2.39;100.00
21960;BME280;11144;43.030;25.108;2023-02-23T04:14:01;99166.72;;;2.38;100.00
21960;BME280;11144;43.030;25.108;2023-02-23T04:15:37;99171.06;;;2.42;100.00
21960;BME280;11144;43.030;25.108;2023-02-23T04:17:11;99164.97;;;2.43;100.00
21960;BME280;11144;43.030;25.108;2023-02-23T04:18:44;99171.91;;;2.41;100.00
21960;BME280;11144;43.030;25.108;2023-02-23T04:20:17;99163.25;;;2.39;100.00
21960;BME280;11144;43.030;25.108;2023-02-23T04:21:50;99163.25;;;2.39;100.00
21960;BME280;11144;43.030;25.108;2023-02-23T04:23:24;99170.19;;;2.40;100.00
21960;BME280;11144;43.030;25.108;2023-02-23T04:24:57;99173.63;;;2.43;100.00
21960;BME280;11144;43.030;25.108;2023-02-23T04:26:30;99173.63;;;2.48;100.00
21960;BME280;11144;43.030;25.108;2023-02-23T04:28:05;99170.16;;;2.46;100.00
21960;BME280;11144;43.030;25.108;2023-02-23T04:29:38;99171.06;;;2.42;100.00
21960;BME280;11144;43.030;25.108;2023-02-23T04:31:12;99170.22;;;2.34;100.00
21960;BME280;11144;43.030;25.108;2023-02-23T04:32:45;99170.25;;;2.31;100.00
21960;BME280;11144;43.030;25.108;2023-02-23T04:34:18;99170.22;;;2.34;100.00
21960;BME280;11144;43.030;25.108;2023-02-23T04:35:52;99169.41;;;2.29;100.00
21960;BME280;11144;43.030;25.108;2023-02-23T04:37:25;99172.03;;;2.24;100.00
21960;BME280;11144;43.030;25.108;2023-02-23T04:38:58;99177.25;;;2.23;100.00
21960;BME280;11144;43.030;25.108;2023-02-23T04:40:32;99177.25;;;2.23;100.00
21960;BME280;11144;43.030;25.108;2023-02-23T04:42:05;99178.09;;;2.26;100.00
21960;BME280;11144;43.030;25.108;2023-02-23T04:43:39;99178.94;;;2.27;100.00
21960;BME280;11144;43.030;25.108;2023-02-23T04:45:12;99178.06;;;2.32;100.00
21960;BME280;11144;43.030;25.108;2023-02-23T04:46:46;99177.22;;;2.30;100.00
21960;BME280;11144;43.030;25.108;2023-02-23T04:48:19;99177.22;;;2.29;100.00
21960;BME280;11144;43.030;25.108;2023-02-23T04:49:52;99178.09;;;2.25;100.00
21960;BME280;11144;43.030;25.108;2023-02-23T04:51:26;99177.28;;;2.17;100.00
21960;BME280;11144;43.030;25.108;2023-02-23T04:53:03;99190.31;;;2.18;100.00
21960;BME280;11144;43.030;25.108;2023-02-23T04:54:36;99185.13;;;2.17;100.00
21960;BME280;11144;43.030;25.108;2023-02-23T04:56:10;99189.44;;;2.15;100.00
21960;BME280;11144;43.030;25.108;2023-02-23T04:57:44;99183.38;;;2.14;100.00
21960;BME280;11144;43.030;25.108;2023-02-23T04:59:18;99179.91;;;2.12;100.00
21960;BME280;11144;43.030;25.108;2023-02-23T05:00:51;99186.91;;;2.09;100.00
21960;BME280;11144;43.030;25.108;2023-02-23T05:02:25;99184.25;;;2.15;100.00
21960;BME280;11144;43.030;25.108;2023-02-23T05:03:58;99194.66;;;2.15;100.00
21960;BME280;11144;43.030;25.108;2023-02-23T05:05:32;99192.94;;;2.14;100.00
21960;BME280;11144;43.030;25.108;2023-02-23T05:07:05;99192.94;;;2.14;100.00
21960;BME280;11144;43.030;25.108;2023-02-23T05:08:39;99195.56;;;2.11;100.00
21960;BME280;11144;43.030;25.108;2023-02-23T05:10:12;99193.00;;;2.05;100.00
21960;BME280;11144;43.030;25.108;2023-02-23T05:11:45;99198.22;;;2.05;100.00
21960;BME280;11144;43.030;25.108;2023-02-23T05:13:18;99196.44;;;2.10;100.00
21960;BME280;11144;43.030;25.108;2023-02-23T05:14:54;99201.66;;;2.13;100.00
21960;BME280;11144;43.030;25.108;2023-02-23T05:16:26;99202.50;;;2.12;100.00
21960;BME280;11144;43.030;25.108;2023-02-23T05:18:00;99206.88;;;2.11;100.00
21960;BME280;11144;43.030;25.108;2023-02-23T05:19:33;99205.16;;;2.06;100.00
21960;BME280;11144;43.030;25.108;2023-02-23T05:21:07;99206.88;;;2.01;100.00
21960;BME280;11144;43.030;25.108;2023-02-23T05:22:40;99212.09;;;2.04;100.00
21960;BME280;11144;43.030;25.108;2023-02-23T05:24:14;99206.00;;;2.09;100.00
21960;BME280;11144;43.030;25.108;2023-02-23T05:25:48;99213.81;;;2.11;100.00
21960;BME280;11144;43.030;25.108;2023-02-23T05:27:21;99212.94;;;2.12;100.00
21960;BME280;11144;43.030;25.108;2023-02-23T05:28:54;99214.69;;;2.07;100.00
21960;BME280;11144;43.030;25.108;2023-02-23T05:30:29;99224.25;;;2.08;100.00
21960;BME280;11144;43.030;25.108;2023-02-23T05:32:04;99216.47;;;1.99;100.00
21960;BME280;11144;43.030;25.108;2023-02-23T05:33:38;99226.00;;;2.03;100.00
21960;BME280;11144;43.030;25.108;2023-02-23T05:35:13;99227.72;;;2.13;100.00
21960;BME280;11144;43.030;25.108;2023-02-23T05:36:47;99229.44;;;2.14;100.00
21960;BME280;11144;43.030;25.108;2023-02-23T05:38:19;99236.38;;;2.12;100.00
21960;BME280;11144;43.030;25.108;2023-02-23T05:39:52;99234.72;;;2.05;100.00
21960;BME280;11144;43.030;25.108;2023-02-23T05:41:26;99232.09;;;2.03;100.00
21960;BME280;11144;43.030;25.108;2023-02-23T05:42:59;99238.16;;;2.04;100.00
21960;BME280;11144;43.030;25.108;2023-02-23T05:44:32;99243.34;;;2.13;100.00
21960;BME280;11144;43.030;25.108;2023-02-23T05:46:08;99248.50;;;2.28;100.00
21960;BME280;11144;43.030;25.108;2023-02-23T05:47:41;99244.94;;;2.47;100.00
21960;BME280;11144;43.030;25.108;2023-02-23T05:49:15;99246.56;;;2.66;100.00
21960;BME280;11144;43.030;25.108;2023-02-23T05:50:48;99249.88;;;2.89;100.00
21960;BME280;11144;43.030;25.108;2023-02-23T05:52:21;99254.16;;;3.05;100.00
21960;BME280;11144;43.030;25.108;2023-02-23T05:53:55;99251.47;;;3.11;100.00
21960;BME280;11144;43.030;25.108;2023-02-23T05:55:29;99266.22;;;3.15;100.00
21960;BME280;11144;43.030;25.108;2023-02-23T05:57:02;99258.38;;;3.18;100.00
21960;BME280;11144;43.030;25.108;2023-02-23T05:58:35;99267.94;;;3.19;100.00
21960;BME280;11144;43.030;25.108;2023-02-23T06:00:10;99270.56;;;3.19;100.00
21960;BME280;11144;43.030;25.108;2023-02-23T06:01:46;99267.06;;;3.21;100.00
21960;BME280;11144;43.030;25.108;2023-02-23T06:03:19;99275.75;;;3.25;100.00
21960;BME280;11144;43.030;25.108;2023-02-23T06:04:53;99275.69;;;3.31;100.00
21960;BME280;11144;43.030;25.108;2023-02-23T06:06:27;99278.34;;;3.28;100.00
21960;BME280;11144;43.030;25.108;2023-02-23T06:08:00;99274.84;;;3.27;100.00
21960;BME280;11144;43.030;25.108;2023-02-23T06:09:33;99281.72;;;3.39;100.00
21960;BME280;11144;43.030;25.108;2023-02-23T06:11:07;99278.19;;;3.47;100.00
21960;BME280;11144;43.030;25.108;2023-02-23T06:12:40;99276.38;;;3.54;100.00
21960;BME280;11144;43.030;25.108;2023-02-23T06:14:14;99286.81;;;3.57;100.00
21960;BME280;11144;43.030;25.108;2023-02-23T06:15:48;99285.91;;;3.59;100.00
21960;BME280;11144;43.030;25.108;2023-02-23T06:17:22;99280.69;;;3.59;100.00
21960;BME280;11144;43.030;25.108;2023-02-23T06:18:56;99287.63;;;3.62;100.00
21960;BME280;11144;43.030;25.108;2023-02-23T06:20:29;99288.41;;;3.72;100.00
21960;BME280;11144;43.030;25.108;2023-02-23T06:22:03;99285.69;;;3.82;100.00
21960;BME280;11144;43.030;25.108;2023-02-23T06:23:36;99283.00;;;3.88;100.00
21960;BME280;11144;43.030;25.108;2023-02-23T06:25:09;99294.19;;;4.02;100.00
21960;BME280;11144;43.030;25.108;2023-02-23T06:26:44;99283.56;;;4.17;100.00
21960;BME280;11144;43.030;25.108;2023-02-23T06:28:17;99296.47;;;4.32;100.00
21960;BME280;11144;43.030;25.108;2023-02-23T06:29:50;99283.31;;;4.41;100.00
21960;BME280;11144;43.030;25.108;2023-02-23T06:31:24;99291.78;;;4.58;100.00
21960;BME280;11144;43.030;25.108;2023-02-23T06:32:59;99288.09;;;4.74;100.00
21960;BME280;11144;43.030;25.108;2023-02-23T06:34:33;99293.13;;;4.89;100.00
21960;BME280;11144;43.030;25.108;2023-02-23T06:36:06;99298.13;;;5.07;100.00
21960;BME280;11144;43.030;25.108;2023-02-23T06:37:41;99303.00;;;5.28;100.00
21960;BME280;11144;43.030;25.108;2023-02-23T06:39:14;99306.13;;;5.51;100.00
21960;BME280;11144;43.030;25.108;2023-02-23T06:40:48;99302.19;;;5.79;100.00
21960;BME280;11144;43.030;25.108;2023-02-23T06:42:21;99312.41;;;5.96;100.00
21960;BME280;11144;43.030;25.108;2023-02-23T06:43:54;99305.09;;;6.13;100.00
21960;BME280;11144;43.030;25.108;2023-02-23T06:45:27;99315.41;;;6.23;100.00
21960;BME280;11144;43.030;25.108;2023-02-23T06:47:02;99311.81;;;6.27;100.00
21960;BME280;11144;43.030;25.108;2023-02-23T06:48:37;99307.19;;;6.40;100.00
21960;BME280;11144;43.030;25.108;2023-02-23T06:50:12;99307.06;;;6.47;100.00
21960;BME280;11144;43.030;25.108;2023-02-23T06:51:45;99308.69;;;6.53;100.00
21960;BME280;11144;43.030;25.108;2023-02-23T06:53:18;99306.56;;;6.70;100.00
21960;BME280;11144;43.030;25.108;2023-02-23T06:54:52;99302.78;;;6.84;100.00
21960;BME280;11144;43.030;25.108;2023-02-23T06:56:25;99305.75;;;7.07;100.00
21960;BME280;11144;43.030;25.108;2023-02-23T06:57:59;99287.72;;;7.29;100.00
21960;BME280;11144;43.030;25.108;2023-02-23T06:59:31;99292.56;;;7.47;100.00
21960;BME280;11144;43.030;25.108;2023-02-23T07:01:05;99299.94;;;7.68;100.00
21960;BME280;11144;43.030;25.108;2023-02-23T07:02:38;99295.91;;;7.89;100.00
21960;BME280;11144;43.030;25.108;2023-02-23T07:04:13;99293.97;;;7.95;100.00
21960;BME280;11144;43.030;25.108;2023-02-23T07:05:48;99298.13;;;8.04;100.00
21960;BME280;11144;43.030;25.108;2023-02-23T07:07:22;99287.88;;;8.27;100.00
21960;BME280;11144;43.030;25.108;2023-02-23T07:08:56;99288.38;;;8.41;100.00
21960;BME280;11144;43.030;25.108;2023-02-23T07:10:29;99284.84;;;8.71;100.00
21960;BME280;11144;43.030;25.108;2023-02-23T07:12:03;99293.44;;;9.06;100.00
21960;BME280;11144;43.030;25.108;2023-02-23T07:13:36;99288.38;;;9.28;100.00
21960;BME280;11144;43.030;25.108;2023-02-23T07:15:10;99292.78;;;9.55;100.00
21960;BME280;11144;43.030;25.108;2023-02-23T07:16:43;99298.38;;;9.98;100.00
21960;BME280;11144;43.030;25.108;2023-02-23T07:18:17;99293.69;;;10.32;100.00
21960;BME280;11144;43.030;25.108;2023-02-23T07:19:51;99293.88;;;10.51;100.00
21960;BME280;11144;43.030;25.108;2023-02-23T07:21:24;99287.06;;;10.68;100.00
21960;BME280;11144;43.030;25.108;2023-02-23T07:22:58;99295.34;;;10.82;100.00
21960;BME280;11144;43.030;25.108;2023-02-23T07:24:32;99289.25;;;11.03;100.00
21960;BME280;11144;43.030;25.108;2023-02-23T07:26:05;99292.22;;;11.17;100.00
21960;BME280;11144;43.030;25.108;2023-02-23T07:27:38;99294.69;;;11.22;100.00
21960;BME280;11144;43.030;25.108;2023-02-23T07:29:13;99286.09;;;11.38;100.00
21960;BME280;11144;43.030;25.108;2023-02-23T07:30:46;99283.75;;;11.52;100.00
21960;BME280;11144;43.030;25.108;2023-02-23T07:32:20;99288.06;;;11.55;100.00
21960;BME280;11144;43.030;25.108;2023-02-23T07:33:54;99288.81;;;11.58;100.00
21960;BME280;11144;43.030;25.108;2023-02-23T07:35:29;99279.97;;;11.81;100.00
21960;BME280;11144;43.030;25.108;2023-02-23T07:37:02;99288.78;;;12.01;100.00
21960;BME280;11144;43.030;25.108;2023-02-23T07:38:35;99291.06;;;12.30;100.00
21960;BME280;11144;43.030;25.108;2023-02-23T07:40:10;99284.81;;;12.51;100.00
21960;BME280;11144;43.030;25.108;2023-02-23T07:41:43;99285.31;;;12.79;100.00
21960;BME280;11144;43.030;25.108;2023-02-23T07:43:22;99290.81;;;13.13;100.00
21960;BME280;11144;43.030;25.108;2023-02-23T07:44:55;99282.19;;;13.45;100.00
21960;BME280;11144;43.030;25.108;2023-02-23T07:46:28;99286.97;;;13.75;100.00
21960;BME280;11144;43.030;25.108;2023-02-23T07:48:02;99295.59;;;13.97;100.00
21960;BME280;11144;43.030;25.108;2023-02-23T07:49:35;99287.38;;;14.18;100.00
21960;BME280;11144;43.030;25.108;2023-02-23T07:51:10;99284.03;;;14.49;100.00
21960;BME280;11144;43.030;25.108;2023-02-23T07:52:44;99283.81;;;14.36;100.00
21960;BME280;11144;43.030;25.108;2023-02-23T07:54:17;99286.25;;;14.41;100.00
21960;BME280;11144;43.030;25.108;2023-02-23T07:55:55;99283.28;;;14.30;100.00
21960;BME280;11144;43.030;25.108;2023-02-23T07:57:28;99281.22;;;14.35;100.00
21960;BME280;11144;43.030;25.108;2023-02-23T07:59:02;99281.53;;;14.29;100.00
21960;BME280;11144;43.030;25.108;2023-02-23T08:00:36;99275.75;;;14.38;100.00
21960;BME280;11144;43.030;25.108;2023-02-23T08:02:12;99271.50;;;14.51;100.00
21960;BME280;11144;43.030;25.108;2023-02-23T08:03:45;99282.25;;;14.82;100.00
21960;BME280;11144;43.030;25.108;2023-02-23T08:05:20;99278.75;;;14.64;100.00
21960;BME280;11144;43.030;25.108;2023-02-23T08:06:58;99282.63;;;14.42;100.00
21960;BME280;11144;43.030;25.108;2023-02-23T08:08:31;99276.28;;;14.44;100.00
21960;BME280;11144;43.030;25.108;2023-02-23T08:10:06;99274.31;;;14.65;100.00
21960;BME280;11144;43.030;25.108;2023-02-23T08:11:42;99281.28;;;15.00;100.00
21960;BME280;11144;43.030;25.108;2023-02-23T08:13:16;99278.34;;;15.37;100.00
21960;BME280;11144;43.030;25.108;2023-02-23T08:14:49;99273.84;;;15.53;100.00
21960;BME280;11144;43.030;25.108;2023-02-23T08:16:23;99271.69;;;15.75;100.00
21960;BME280;11144;43.030;25.108;2023-02-23T08:17:57;99272.16;;;15.97;100.00
21960;BME280;11144;43.030;25.108;2023-02-23T08:19:30;99271.34;;;15.50;100.00
21960;BME280;11144;43.030;25.108;2023-02-23T08:21:04;99266.75;;;15.21;100.00
21960;BME280;11144;43.030;25.108;2023-02-23T08:22:38;99269.31;;;15.07;100.00
21960;BME280;11144;43.030;25.108;2023-02-23T08:24:21;99275.66;;;15.37;100.00
21960;BME280;11144;43.030;25.108;2023-02-23T08:25:54;99274.28;;;15.61;100.00
21960;BME280;11144;43.030;25.108;2023-02-23T08:27:27;99275.88;;;15.79;100.00
21960;BME280;11144;43.030;25.108;2023-02-23T08:29:00;99276.28;;;15.87;100.00
21960;BME280;11144;43.030;25.108;2023-02-23T08:30:34;99272.72;;;15.72;100.00
21960;BME280;11144;43.030;25.108;2023-02-23T08:32:07;99280.63;;;15.74;100.00
21960;BME280;11144;43.030;25.108;2023-02-23T08:33:41;99271.59;;;15.45;100.00
21960;BME280;11144;43.030;25.108;2023-02-23T08:35:14;99271.53;;;15.47;100.00
21960;BME280;11144;43.030;25.108;2023-02-23T08:36:47;99274.09;;;15.64;100.00
21960;BME280;11144;43.030;25.108;2023-02-23T08:38:22;99263.91;;;15.86;100.00
21960;BME280;11144;43.030;25.108;2023-02-23T08:39:56;99272.66;;;15.88;100.00